Time;durP1;ratioP1;P1;durP2;ratioP2;P2;SDS_P1;SDS_P2;PMS_P1;PMS_P2;Temp;Humidity;BMP_temperature;BMP_pressure;BME280_temperature;BME280_humidity;BME280_pressure;Samples;Min_cycle;Max_cycle;Signal;HPM_P1;HPM_P2
2021/05/03 17:17:15;;;;;;;2.72;2.08;;;;;;;;;;5154698;27;20305;-78
2021/05/03 17:19:41;;;;;;;4.30;2.17;;;;;;;;;;5141282;27;20444;-77
2021/05/03 17:22:07;;;;;;;4.60;2.03;;;;;;;;;;5122144;28;20032;-77
2021/05/03 17:24:34;;;;;;;3.25;2.00;;;;;;;;;;5119997;28;20020;-77
2021/05/03 17:27:01;;;;;;;2.60;1.70;;;;;;;;;;5133295;28;20020;-75
2021/05/03 17:29:27;;;;;;;2.60;1.63;;;;;;;;;;5137301;27;20012;-77
2021/05/03 17:31:53;;;;;;;3.83;1.70;;;;;;;;;;5116109;28;21488;-77
2021/05/03 17:34:19;;;;;;;6.35;1.95;;;;;;;;;;5115383;28;20032;-78
2021/05/03 17:36:45;;;;;;;3.60;1.55;;;;;;;;;;5116795;28;20027;-76
2021/05/03 17:39:12;;;;;;;2.47;1.80;;;;;;;;;;5121388;28;20038;-76
2021/05/03 17:41:38;;;;;;;1.98;1.38;;;;;;;;;;5118979;27;20483;-77
2021/05/03 17:44:05;;;;;;;3.22;1.65;;;;;;;;;;5100240;28;20032;-77
2021/05/03 17:46:32;;;;;;;2.35;1.60;;;;;;;;;;5118462;28;20051;-78
2021/05/03 17:48:58;;;;;;;3.00;1.50;;;;;;;;;;5117968;28;20495;-76
2021/05/03 17:51:24;;;;;;;2.78;1.73;;;;;;;;;;5120319;28;20383;-77
2021/05/03 17:53:50;;;;;;;2.50;1.85;;;;;;;;;;5120302;28;20027;-76
2021/05/03 17:56:17;;;;;;;2.72;1.63;;;;;;;;;;5122488;28;20035;-78
2021/05/03 17:58:45;;;;;;;3.75;1.70;;;;;;;;;;5109987;28;20538;-76
2021/05/03 18:01:11;;;;;;;3.65;1.55;;;;;;;;;;5108553;28;20024;-78
2021/05/03 18:03:39;;;;;;;3.30;1.67;;;;;;;;;;5123253;28;20031;-76
2021/05/03 18:06:09;;;;;;;4.63;2.00;;;;;;;;;;5130783;28;20019;-78
2021/05/03 18:08:35;;;;;;;2.50;1.58;;;;;;;;;;5120308;28;20480;-79
2021/05/03 18:11:02;;;;;;;2.05;1.60;;;;;;;;;;5123395;27;20051;-77
2021/05/03 18:13:28;;;;;;;2.88;1.38;;;;;;;;;;5084513;28;20023;-74
2021/05/03 18:15:54;;;;;;;4.05;2.10;;;;;;;;;;5113067;28;20042;-75
2021/05/03 18:18:22;;;;;;;2.00;1.50;;;;;;;;;;5115418;28;20164;-74
2021/05/03 18:20:51;;;;;;;2.78;1.92;;;;;;;;;;5114193;27;20466;-77
2021/05/03 18:23:17;;;;;;;4.05;1.83;;;;;;;;;;5114935;28;20035;-76
2021/05/03 18:25:43;;;;;;;2.35;1.23;;;;;;;;;;5113399;28;20063;-77
2021/05/03 18:28:09;;;;;;;4.72;1.63;;;;;;;;;;5084825;28;20027;-76
2021/05/03 18:30:35;;;;;;;2.30;1.50;;;;;;;;;;5071164;28;20032;-78
2021/05/03 18:33:01;;;;;;;4.18;2.10;;;;;;;;;;5090486;28;20103;-77
2021/05/03 18:35:27;;;;;;;6.38;3.05;;;;;;;;;;5075612;28;20028;-76
2021/05/03 18:37:54;;;;;;;6.35;3.47;;;;;;;;;;5104091;28;20027;-76
2021/05/03 18:40:20;;;;;;;5.53;3.72;;;;;;;;;;5096617;28;20144;-76
2021/05/03 18:42:46;;;;;;;6.20;4.18;;;;;;;;;;5101989;28;20495;-77
2021/05/03 18:45:13;;;;;;;6.97;4.15;;;;;;;;;;5118165;28;20024;-76
2021/05/03 18:47:39;;;;;;;6.85;3.90;;;;;;;;;;5134725;27;20023;-76
2021/05/03 18:50:05;;;;;;;5.88;3.85;;;;;;;;;;5120860;28;20266;-76
2021/05/03 18:52:33;;;;;;;6.75;3.90;;;;;;;;;;5094417;28;20519;-77
2021/05/03 18:54:59;;;;;;;8.13;4.18;;;;;;;;;;5121641;28;20028;-76
2021/05/03 18:57:25;;;;;;;8.02;5.45;;;;;;;;;;5103727;28;20483;-77
2021/05/03 18:59:51;;;;;;;6.88;4.25;;;;;;;;;;5096532;28;20059;-77
2021/05/03 19:02:17;;;;;;;4.88;3.47;;;;;;;;;;5098936;28;20246;-77
2021/05/03 19:04:44;;;;;;;4.28;2.97;;;;;;;;;;5116227;28;20023;-78
2021/05/03 19:07:12;;;;;;;5.18;3.15;;;;;;;;;;5115171;28;20024;-73
2021/05/03 19:09:38;;;;;;;4.32;2.72;;;;;;;;;;5112847;28;20059;-76
2021/05/03 19:12:05;;;;;;;5.25;3.10;;;;;;;;;;5115662;28;20062;-78
2021/05/03 19:14:34;;;;;;;4.95;3.05;;;;;;;;;;5117273;28;20028;-78
2021/05/03 19:17:01;;;;;;;5.80;2.60;;;;;;;;;;5118363;28;20024;-79
2021/05/03 19:19:27;;;;;;;7.15;2.80;;;;;;;;;;5116200;28;20696;-78
2021/05/03 19:21:53;;;;;;;6.90;2.97;;;;;;;;;;5114613;28;20031;-78
2021/05/03 19:24:21;;;;;;;6.57;3.65;;;;;;;;;;5096719;28;20024;-78
2021/05/03 19:26:47;;;;;;;7.38;3.55;;;;;;;;;;5099211;28;20519;-78
2021/05/03 19:29:13;;;;;;;4.38;3.33;;;;;;;;;;5097111;28;20056;-78
2021/05/03 19:31:45;;;;;;;5.00;3.08;;;;;;;;;;5100091;28;20024;-79
2021/05/03 19:34:11;;;;;;;5.38;3.40;;;;;;;;;;5099243;28;20024;-79
2021/05/03 19:36:37;;;;;;;4.38;3.42;;;;;;;;;;5107325;28;20050;-80
2021/05/03 19:39:04;;;;;;;6.05;3.50;;;;;;;;;;5102463;28;20133;-80
2021/05/03 19:41:30;;;;;;;6.22;4.07;;;;;;;;;;5101204;28;20032;-77
2021/05/03 19:43:56;;;;;;;10.32;5.68;;;;;;;;;;5112684;28;20078;-79
2021/05/03 19:46:23;;;;;;;9.75;4.72;;;;;;;;;;5112602;28;20027;-80
2021/05/03 19:48:53;;;;;;;8.27;3.83;;;;;;;;;;5102119;28;20018;-80
2021/05/03 19:51:44;;;;;;;8.25;4.30;;;;;;;;;;5093544;28;20028;-80
2021/05/03 19:54:43;;;;;;;8.07;3.78;;;;;;;;;;5106187;28;20020;-81
2021/05/03 20:05:11;;;;;;;3.90;2.72;;;;;;;;;;5119958;28;20023;-79
2021/05/03 20:07:37;;;;;;;8.85;3.63;;;;;;;;;;5104929;28;20030;-78
2021/05/03 20:10:05;;;;;;;7.07;3.53;;;;;;;;;;5133144;27;20073;-79
2021/05/03 20:12:31;;;;;;;8.27;3.85;;;;;;;;;;5114432;28;20475;-79
2021/05/03 20:14:59;;;;;;;5.90;4.00;;;;;;;;;;5113845;28;20036;-79
2021/05/03 20:17:25;;;;;;;5.53;4.15;;;;;;;;;;5096404;28;20491;-80
2021/05/03 20:19:52;;;;;;;7.03;3.58;;;;;;;;;;5100100;28;20032;-79
2021/05/03 20:22:18;;;;;;;6.00;3.95;;;;;;;;;;5100587;28;20027;-78
2021/05/03 20:24:44;;;;;;;9.00;4.40;;;;;;;;;;5107419;28;20039;-76
2021/05/03 20:27:10;;;;;;;5.18;3.80;;;;;;;;;;5096545;28;20048;-77
2021/05/03 20:29:36;;;;;;;6.22;4.30;;;;;;;;;;5114721;28;20019;-79
2021/05/03 20:32:03;;;;;;;6.75;3.63;;;;;;;;;;5098817;28;20035;-78
2021/05/03 20:34:34;;;;;;;8.18;4.22;;;;;;;;;;5097811;28;20028;-78
2021/05/03 20:37:16;;;;;;;5.30;3.72;;;;;;;;;;5099387;28;20558;-78
2021/05/03 20:42:09;;;;;;;6.85;3.60;;;;;;;;;;5091705;28;20027;-78
2021/05/03 20:44:35;;;;;;;5.57;3.17;;;;;;;;;;5075825;28;20024;-77
2021/05/03 20:47:01;;;;;;;6.32;3.22;;;;;;;;;;5095534;28;20109;-78
2021/05/03 20:49:27;;;;;;;5.53;3.97;;;;;;;;;;5100393;28;20035;-78
2021/05/03 20:51:53;;;;;;;4.22;3.50;;;;;;;;;;5090891;28;20499;-79
2021/05/03 20:54:19;;;;;;;6.60;3.55;;;;;;;;;;5110717;28;20027;-79
2021/05/03 20:56:45;;;;;;;4.35;3.20;;;;;;;;;;5110184;28;20035;-79
2021/05/03 20:59:12;;;;;;;9.63;3.28;;;;;;;;;;5098804;28;20384;-79
2021/05/03 21:01:38;;;;;;;19.35;9.82;;;;;;;;;;5116299;28;20031;-79
2021/05/03 21:04:04;;;;;;;14.15;8.73;;;;;;;;;;5101874;28;20439;-80
2021/05/03 21:06:30;;;;;;;12.85;6.40;;;;;;;;;;5118018;28;20020;-79
2021/05/03 21:08:56;;;;;;;10.27;6.53;;;;;;;;;;5114304;28;20032;-79
2021/05/03 21:11:22;;;;;;;7.57;4.53;;;;;;;;;;5113227;28;20032;-79
2021/05/03 21:13:50;;;;;;;6.97;4.40;;;;;;;;;;5096189;28;20027;-78
2021/05/03 21:16:16;;;;;;;8.38;3.47;;;;;;;;;;5106562;28;20451;-77
2021/05/03 21:18:42;;;;;;;6.97;3.70;;;;;;;;;;5088872;28;20016;-79
2021/05/03 21:21:08;;;;;;;5.45;3.65;;;;;;;;;;5105643;28;20488;-77
2021/05/03 21:23:34;;;;;;;6.07;2.80;;;;;;;;;;5112793;28;20106;-78
2021/05/03 21:26:00;;;;;;;6.75;3.28;;;;;;;;;;5118215;28;20087;-79
2021/05/03 21:28:27;;;;;;;4.38;2.60;;;;;;;;;;5106627;28;20024;-78
2021/05/03 21:30:53;;;;;;;6.07;3.15;;;;;;;;;;5109293;28;20023;-79
2021/05/03 21:33:19;;;;;;;8.10;3.40;;;;;;;;;;5119844;28;20024;-79
2021/05/03 21:35:45;;;;;;;7.07;2.70;;;;;;;;;;5109140;28;20039;-79
2021/05/03 21:38:11;;;;;;;4.43;2.60;;;;;;;;;;5089356;28;20043;-79
2021/05/03 21:40:37;;;;;;;6.15;2.60;;;;;;;;;;5106227;28;20032;-78
2021/05/03 21:43:03;;;;;;;4.30;2.92;;;;;;;;;;5088668;28;20034;-78
2021/05/03 21:45:29;;;;;;;6.55;2.90;;;;;;;;;;5089223;28;20032;-78
2021/05/03 21:47:55;;;;;;;3.92;2.33;;;;;;;;;;5089565;28;20103;-78
2021/05/03 21:50:21;;;;;;;4.00;2.10;;;;;;;;;;5088802;28;20032;-79
2021/05/03 21:52:47;;;;;;;3.45;2.47;;;;;;;;;;5106483;28;20047;-78
2021/05/03 21:55:13;;;;;;;6.45;2.78;;;;;;;;;;5105657;28;20088;-79
2021/05/03 21:57:39;;;;;;;5.88;2.78;;;;;;;;;;5104949;28;20028;-79
2021/05/03 22:00:07;;;;;;;3.97;2.83;;;;;;;;;;5095001;28;20545;-79
2021/05/03 22:02:33;;;;;;;5.43;2.90;;;;;;;;;;5078946;28;20055;-79
2021/05/03 22:04:59;;;;;;;4.05;2.92;;;;;;;;;;5108234;28;20020;-79
2021/05/03 22:07:25;;;;;;;4.70;2.70;;;;;;;;;;5127471;28;20054;-78
2021/05/03 22:09:51;;;;;;;4.32;2.95;;;;;;;;;;5137785;22;20048;-72
2021/05/03 22:12:19;;;;;;;3.22;2.45;;;;;;;;;;5066609;28;20083;-71
2021/05/03 22:14:49;;;;;;;5.80;2.53;;;;;;;;;;5072827;28;20584;-70
2021/05/03 22:19:57;;;;;;;6.03;2.60;;;;;;;;;;5073304;28;20120;-70
2021/05/03 22:25:06;;;;;;;4.10;2.70;;;;;;;;;;5094210;28;20028;-70
2021/05/03 22:30:18;;;;;;;4.28;2.55;;;;;;;;;;5093234;28;20035;-71
2021/05/03 22:32:44;;;;;;;4.57;2.30;;;;;;;;;;5093595;28;20025;-70
2021/05/03 22:35:11;;;;;;;3.45;2.20;;;;;;;;;;5094495;28;20029;-70
2021/05/03 22:37:53;;;;;;;3.50;2.13;;;;;;;;;;5094393;28;20023;-70
